sensor_id;sensor_type;location;lat;lon;timestamp;P1;durP1;ratioP1;P2;durP2;ratioP2
24261;SDS011;12385;51.412;5.540;2023-12-20T00:01:07;32.85;;;8.38;;
24261;SDS011;12385;51.412;5.540;2023-12-20T00:03:33;35.65;;;8.40;;
24261;SDS011;12385;51.412;5.540;2023-12-20T00:05:58;27.67;;;7.80;;
24261;SDS011;12385;51.412;5.540;2023-12-20T00:08:24;30.15;;;7.22;;
24261;SDS011;12385;51.412;5.540;2023-12-20T00:10:52;29.13;;;6.82;;
24261;SDS011;12385;51.412;5.540;2023-12-20T00:13:18;36.45;;;6.95;;
24261;SDS011;12385;51.412;5.540;2023-12-20T00:15:48;31.30;;;7.28;;
24261;SDS011;12385;51.412;5.540;2023-12-20T00:18:13;30.95;;;7.88;;
24261;SDS011;12385;51.412;5.540;2023-12-20T00:20:39;34.00;;;6.95;;
24261;SDS011;12385;51.412;5.540;2023-12-20T00:23:05;30.20;;;6.20;;
24261;SDS011;12385;51.412;5.540;2023-12-20T00:25:33;40.45;;;6.72;;
24261;SDS011;12385;51.412;5.540;2023-12-20T00:27:59;35.55;;;6.20;;
24261;SDS011;12385;51.412;5.540;2023-12-20T00:30:26;21.70;;;5.30;;
24261;SDS011;12385;51.412;5.540;2023-12-20T00:32:52;31.13;;;5.25;;
24261;SDS011;12385;51.412;5.540;2023-12-20T00:35:18;33.35;;;5.93;;
24261;SDS011;12385;51.412;5.540;2023-12-20T00:37:44;31.27;;;6.18;;
24261;SDS011;12385;51.412;5.540;2023-12-20T00:40:09;34.08;;;5.93;;
24261;SDS011;12385;51.412;5.540;2023-12-20T00:42:35;32.83;;;5.45;;
24261;SDS011;12385;51.412;5.540;2023-12-20T00:45:02;25.30;;;4.78;;
24261;SDS011;12385;51.412;5.540;2023-12-20T00:47:32;28.42;;;4.72;;
24261;SDS011;12385;51.412;5.540;2023-12-20T00:49:58;27.40;;;4.75;;
24261;SDS011;12385;51.412;5.540;2023-12-20T00:52:24;30.77;;;4.78;;
24261;SDS011;12385;51.412;5.540;2023-12-20T00:54:52;29.52;;;5.50;;
24261;SDS011;12385;51.412;5.540;2023-12-20T00:57:18;30.80;;;4.88;;
24261;SDS011;12385;51.412;5.540;2023-12-20T00:59:43;37.05;;;5.03;;
24261;SDS011;12385;51.412;5.540;2023-12-20T01:02:09;31.20;;;4.78;;
24261;SDS011;12385;51.412;5.540;2023-12-20T01:04:35;40.80;;;5.53;;
24261;SDS011;12385;51.412;5.540;2023-12-20T01:07:04;29.30;;;5.25;;
24261;SDS011;12385;51.412;5.540;2023-12-20T01:09:30;41.58;;;5.70;;
24261;SDS011;12385;51.412;5.540;2023-12-20T01:11:56;22.75;;;5.00;;
24261;SDS011;12385;51.412;5.540;2023-12-20T01:14:22;31.63;;;5.35;;
24261;SDS011;12385;51.412;5.540;2023-12-20T01:16:48;35.28;;;5.35;;
24261;SDS011;12385;51.412;5.540;2023-12-20T01:19:14;25.85;;;4.85;;
24261;SDS011;12385;51.412;5.540;2023-12-20T01:21:39;36.65;;;5.13;;
24261;SDS011;12385;51.412;5.540;2023-12-20T01:24:05;29.45;;;5.18;;
24261;SDS011;12385;51.412;5.540;2023-12-20T01:26:31;30.98;;;6.00;;
24261;SDS011;12385;51.412;5.540;2023-12-20T01:28:59;38.50;;;5.55;;
24261;SDS011;12385;51.412;5.540;2023-12-20T01:31:26;39.40;;;5.25;;
24261;SDS011;12385;51.412;5.540;2023-12-20T01:33:55;36.25;;;5.85;;
24261;SDS011;12385;51.412;5.540;2023-12-20T01:36:23;35.47;;;5.25;;
24261;SDS011;12385;51.412;5.540;2023-12-20T01:38:48;30.02;;;4.50;;
24261;SDS011;12385;51.412;5.540;2023-12-20T01:41:18;40.88;;;5.53;;
24261;SDS011;12385;51.412;5.540;2023-12-20T01:43:44;25.38;;;5.03;;
24261;SDS011;12385;51.412;5.540;2023-12-20T01:46:10;29.27;;;5.25;;
24261;SDS011;12385;51.412;5.540;2023-12-20T01:48:37;33.20;;;5.43;;
24261;SDS011;12385;51.412;5.540;2023-12-20T01:51:06;32.22;;;4.15;;
24261;SDS011;12385;51.412;5.540;2023-12-20T01:53:32;33.60;;;5.43;;
24261;SDS011;12385;51.412;5.540;2023-12-20T01:55:59;31.17;;;4.22;;
24261;SDS011;12385;51.412;5.540;2023-12-20T01:58:25;31.60;;;4.55;;
24261;SDS011;12385;51.412;5.540;2023-12-20T02:00:52;38.63;;;5.00;;
24261;SDS011;12385;51.412;5.540;2023-12-20T02:03:19;34.55;;;4.63;;
24261;SDS011;12385;51.412;5.540;2023-12-20T02:05:48;34.65;;;5.13;;
24261;SDS011;12385;51.412;5.540;2023-12-20T02:08:14;35.58;;;4.88;;
24261;SDS011;12385;51.412;5.540;2023-12-20T02:10:39;35.65;;;5.43;;
24261;SDS011;12385;51.412;5.540;2023-12-20T02:13:06;39.28;;;5.18;;
24261;SDS011;12385;51.412;5.540;2023-12-20T02:15:31;39.53;;;5.03;;
24261;SDS011;12385;51.412;5.540;2023-12-20T02:17:57;36.90;;;5.05;;
24261;SDS011;12385;51.412;5.540;2023-12-20T02:20:23;27.83;;;4.65;;
24261;SDS011;12385;51.412;5.540;2023-12-20T02:22:53;30.20;;;4.68;;
24261;SDS011;12385;51.412;5.540;2023-12-20T02:25:18;26.58;;;4.10;;
24261;SDS011;12385;51.412;5.540;2023-12-20T02:27:44;33.80;;;5.28;;
24261;SDS011;12385;51.412;5.540;2023-12-20T02:30:10;37.28;;;4.85;;
24261;SDS011;12385;51.412;5.540;2023-12-20T02:32:35;33.38;;;4.38;;
24261;SDS011;12385;51.412;5.540;2023-12-20T02:35:02;26.40;;;4.68;;
24261;SDS011;12385;51.412;5.540;2023-12-20T02:37:27;31.45;;;4.97;;
24261;SDS011;12385;51.412;5.540;2023-12-20T02:39:53;32.40;;;6.07;;
24261;SDS011;12385;51.412;5.540;2023-12-20T02:42:22;32.08;;;5.38;;
24261;SDS011;12385;51.412;5.540;2023-12-20T02:44:48;27.25;;;4.97;;
24261;SDS011;12385;51.412;5.540;2023-12-20T02:47:14;33.88;;;5.35;;
24261;SDS011;12385;51.412;5.540;2023-12-20T02:49:39;38.45;;;5.90;;
24261;SDS011;12385;51.412;5.540;2023-12-20T02:52:05;31.02;;;6.13;;
24261;SDS011;12385;51.412;5.540;2023-12-20T02:54:33;35.88;;;6.25;;
24261;SDS011;12385;51.412;5.540;2023-12-20T02:56:59;36.30;;;6.28;;
24261;SDS011;12385;51.412;5.540;2023-12-20T02:59:24;41.15;;;6.28;;
24261;SDS011;12385;51.412;5.540;2023-12-20T03:01:53;32.55;;;5.90;;
24261;SDS011;12385;51.412;5.540;2023-12-20T03:04:18;32.88;;;6.60;;
24261;SDS011;12385;51.412;5.540;2023-12-20T03:06:44;39.33;;;6.80;;
24261;SDS011;12385;51.412;5.540;2023-12-20T03:09:10;34.38;;;6.53;;
24261;SDS011;12385;51.412;5.540;2023-12-20T03:11:35;41.95;;;7.50;;
24261;SDS011;12385;51.412;5.540;2023-12-20T03:14:01;32.72;;;7.00;;
24261;SDS011;12385;51.412;5.540;2023-12-20T03:16:26;34.40;;;7.35;;
24261;SDS011;12385;51.412;5.540;2023-12-20T03:18:52;34.90;;;7.45;;
24261;SDS011;12385;51.412;5.540;2023-12-20T03:21:18;35.13;;;6.88;;
24261;SDS011;12385;51.412;5.540;2023-12-20T03:23:44;36.00;;;7.93;;
24261;SDS011;12385;51.412;5.540;2023-12-20T03:26:11;38.53;;;7.97;;
24261;SDS011;12385;51.412;5.540;2023-12-20T03:28:37;44.80;;;9.63;;
24261;SDS011;12385;51.412;5.540;2023-12-20T03:31:02;42.88;;;8.30;;
24261;SDS011;12385;51.412;5.540;2023-12-20T03:33:28;40.83;;;8.98;;
24261;SDS011;12385;51.412;5.540;2023-12-20T03:35:55;41.30;;;9.57;;
24261;SDS011;12385;51.412;5.540;2023-12-20T03:38:23;36.75;;;8.93;;
24261;SDS011;12385;51.412;5.540;2023-12-20T03:40:49;30.70;;;8.98;;
24261;SDS011;12385;51.412;5.540;2023-12-20T03:43:18;43.28;;;10.40;;
24261;SDS011;12385;51.412;5.540;2023-12-20T03:45:44;34.72;;;9.63;;
24261;SDS011;12385;51.412;5.540;2023-12-20T03:48:09;39.65;;;9.63;;
24261;SDS011;12385;51.412;5.540;2023-12-20T03:50:35;38.38;;;9.93;;
24261;SDS011;12385;51.412;5.540;2023-12-20T03:53:01;43.88;;;9.70;;
24261;SDS011;12385;51.412;5.540;2023-12-20T03:55:27;41.33;;;10.13;;
24261;SDS011;12385;51.412;5.540;2023-12-20T03:57:53;42.50;;;10.02;;
24261;SDS011;12385;51.412;5.540;2023-12-20T04:00:18;44.22;;;9.20;;
24261;SDS011;12385;51.412;5.540;2023-12-20T04:02:48;41.33;;;9.52;;
24261;SDS011;12385;51.412;5.540;2023-12-20T04:05:14;38.35;;;9.15;;
24261;SDS011;12385;51.412;5.540;2023-12-20T04:07:40;40.85;;;8.82;;
24261;SDS011;12385;51.412;5.540;2023-12-20T04:10:06;42.90;;;8.73;;
24261;SDS011;12385;51.412;5.540;2023-12-20T04:12:32;33.67;;;8.20;;
24261;SDS011;12385;51.412;5.540;2023-12-20T04:14:58;48.85;;;9.20;;
24261;SDS011;12385;51.412;5.540;2023-12-20T04:17:24;36.65;;;9.02;;
24261;SDS011;12385;51.412;5.540;2023-12-20T04:19:53;44.53;;;9.05;;
24261;SDS011;12385;51.412;5.540;2023-12-20T04:22:19;38.87;;;7.47;;
24261;SDS011;12385;51.412;5.540;2023-12-20T04:24:45;45.83;;;9.38;;
24261;SDS011;12385;51.412;5.540;2023-12-20T04:27:11;30.95;;;8.00;;
24261;SDS011;12385;51.412;5.540;2023-12-20T04:29:37;36.22;;;7.88;;
24261;SDS011;12385;51.412;5.540;2023-12-20T04:32:03;58.53;;;10.25;;
24261;SDS011;12385;51.412;5.540;2023-12-20T04:34:29;34.53;;;8.45;;
24261;SDS011;12385;51.412;5.540;2023-12-20T04:36:55;35.63;;;9.93;;
24261;SDS011;12385;51.412;5.540;2023-12-20T04:39:22;34.45;;;8.48;;
24261;SDS011;12385;51.412;5.540;2023-12-20T04:41:52;38.67;;;7.95;;
24261;SDS011;12385;51.412;5.540;2023-12-20T04:44:18;46.25;;;8.38;;
24261;SDS011;12385;51.412;5.540;2023-12-20T04:46:44;32.65;;;8.40;;
24261;SDS011;12385;51.412;5.540;2023-12-20T04:49:09;43.50;;;8.60;;
24261;SDS011;12385;51.412;5.540;2023-12-20T04:51:35;32.55;;;7.70;;
24261;SDS011;12385;51.412;5.540;2023-12-20T04:54:01;40.00;;;8.25;;
24261;SDS011;12385;51.412;5.540;2023-12-20T04:56:27;40.78;;;8.75;;
24261;SDS011;12385;51.412;5.540;2023-12-20T04:58:53;38.63;;;8.70;;
24261;SDS011;12385;51.412;5.540;2023-12-20T05:01:19;38.35;;;8.68;;
24261;SDS011;12385;51.412;5.540;2023-12-20T05:03:47;48.40;;;10.57;;
24261;SDS011;12385;51.412;5.540;2023-12-20T05:06:14;37.85;;;8.30;;
24261;SDS011;12385;51.412;5.540;2023-12-20T05:08:40;41.72;;;8.93;;
24261;SDS011;12385;51.412;5.540;2023-12-20T05:11:05;43.05;;;9.55;;
24261;SDS011;12385;51.412;5.540;2023-12-20T05:13:32;39.90;;;7.85;;
24261;SDS011;12385;51.412;5.540;2023-12-20T05:15:58;43.10;;;8.88;;
24261;SDS011;12385;51.412;5.540;2023-12-20T05:18:23;37.80;;;8.85;;
24261;SDS011;12385;51.412;5.540;2023-12-20T05:20:53;38.10;;;8.73;;
24261;SDS011;12385;51.412;5.540;2023-12-20T05:23:18;41.78;;;8.30;;
24261;SDS011;12385;51.412;5.540;2023-12-20T05:28:14;35.72;;;8.15;;
24261;SDS011;12385;51.412;5.540;2023-12-20T05:30:40;47.10;;;7.70;;
24261;SDS011;12385;51.412;5.540;2023-12-20T05:33:05;40.20;;;7.32;;
24261;SDS011;12385;51.412;5.540;2023-12-20T05:35:31;45.67;;;8.23;;
24261;SDS011;12385;51.412;5.540;2023-12-20T05:37:57;32.25;;;7.57;;
24261;SDS011;12385;51.412;5.540;2023-12-20T05:40:23;35.17;;;7.85;;
24261;SDS011;12385;51.412;5.540;2023-12-20T05:42:48;28.83;;;7.05;;
24261;SDS011;12385;51.412;5.540;2023-12-20T05:45:14;41.83;;;7.72;;
24261;SDS011;12385;51.412;5.540;2023-12-20T05:47:40;43.05;;;8.43;;
24261;SDS011;12385;51.412;5.540;2023-12-20T05:50:06;35.05;;;7.03;;
24261;SDS011;12385;51.412;5.540;2023-12-20T05:52:32;38.53;;;6.70;;
24261;SDS011;12385;51.412;5.540;2023-12-20T05:54:57;33.00;;;6.90;;
24261;SDS011;12385;51.412;5.540;2023-12-20T05:57:26;36.00;;;7.53;;
24261;SDS011;12385;51.412;5.540;2023-12-20T05:59:53;35.47;;;7.20;;
24261;SDS011;12385;51.412;5.540;2023-12-20T06:02:18;30.20;;;6.80;;
24261;SDS011;12385;51.412;5.540;2023-12-20T06:04:44;36.38;;;6.60;;
24261;SDS011;12385;51.412;5.540;2023-12-20T06:07:13;34.40;;;6.75;;
24261;SDS011;12385;51.412;5.540;2023-12-20T06:09:40;35.70;;;7.00;;
24261;SDS011;12385;51.412;5.540;2023-12-20T06:12:06;32.80;;;6.65;;
24261;SDS011;12385;51.412;5.540;2023-12-20T06:14:36;45.40;;;7.43;;
24261;SDS011;12385;51.412;5.540;2023-12-20T06:17:01;41.08;;;7.35;;
24261;SDS011;12385;51.412;5.540;2023-12-20T06:19:28;42.63;;;7.13;;
24261;SDS011;12385;51.412;5.540;2023-12-20T06:21:54;34.67;;;7.03;;
24261;SDS011;12385;51.412;5.540;2023-12-20T06:24:22;38.28;;;6.47;;
24261;SDS011;12385;51.412;5.540;2023-12-20T06:26:52;35.67;;;6.43;;
24261;SDS011;12385;51.412;5.540;2023-12-20T06:29:18;40.55;;;6.78;;
24261;SDS011;12385;51.412;5.540;2023-12-20T06:31:43;39.60;;;6.95;;
24261;SDS011;12385;51.412;5.540;2023-12-20T06:34:10;34.28;;;6.88;;
24261;SDS011;12385;51.412;5.540;2023-12-20T06:36:36;37.35;;;6.95;;
24261;SDS011;12385;51.412;5.540;2023-12-20T06:39:01;37.75;;;7.38;;
24261;SDS011;12385;51.412;5.540;2023-12-20T06:41:27;34.58;;;6.72;;
24261;SDS011;12385;51.412;5.540;2023-12-20T06:43:53;36.00;;;7.70;;
24261;SDS011;12385;51.412;5.540;2023-12-20T06:46:18;34.22;;;6.57;;
24261;SDS011;12385;51.412;5.540;2023-12-20T06:48:44;41.92;;;6.82;;
24261;SDS011;12385;51.412;5.540;2023-12-20T06:51:14;41.60;;;8.32;;
24261;SDS011;12385;51.412;5.540;2023-12-20T06:53:40;39.92;;;7.05;;
24261;SDS011;12385;51.412;5.540;2023-12-20T06:56:07;32.17;;;6.30;;
24261;SDS011;12385;51.412;5.540;2023-12-20T06:58:33;37.80;;;7.28;;
24261;SDS011;12385;51.412;5.540;2023-12-20T07:00:59;41.60;;;7.32;;
24261;SDS011;12385;51.412;5.540;2023-12-20T07:03:25;38.22;;;6.85;;
24261;SDS011;12385;51.412;5.540;2023-12-20T07:05:52;36.80;;;7.10;;
24261;SDS011;12385;51.412;5.540;2023-12-20T07:08:19;37.70;;;6.53;;
24261;SDS011;12385;51.412;5.540;2023-12-20T07:10:47;36.70;;;6.63;;
24261;SDS011;12385;51.412;5.540;2023-12-20T07:13:13;43.50;;;6.50;;
24261;SDS011;12385;51.412;5.540;2023-12-20T07:15:39;32.80;;;6.60;;
24261;SDS011;12385;51.412;5.540;2023-12-20T07:18:05;35.08;;;6.65;;
24261;SDS011;12385;51.412;5.540;2023-12-20T07:20:31;35.28;;;6.32;;
24261;SDS011;12385;51.412;5.540;2023-12-20T07:22:57;40.85;;;7.50;;
24261;SDS011;12385;51.412;5.540;2023-12-20T07:25:26;36.00;;;6.47;;
24261;SDS011;12385;51.412;5.540;2023-12-20T07:27:53;42.05;;;6.68;;
24261;SDS011;12385;51.412;5.540;2023-12-20T07:30:19;32.95;;;6.60;;
24261;SDS011;12385;51.412;5.540;2023-12-20T07:32:49;28.80;;;5.68;;
24261;SDS011;12385;51.412;5.540;2023-12-20T07:35:18;33.67;;;6.20;;
24261;SDS011;12385;51.412;5.540;2023-12-20T07:37:46;35.75;;;6.53;;
24261;SDS011;12385;51.412;5.540;2023-12-20T07:40:11;34.88;;;6.35;;
24261;SDS011;12385;51.412;5.540;2023-12-20T07:42:37;35.35;;;6.00;;
24261;SDS011;12385;51.412;5.540;2023-12-20T07:45:03;38.47;;;5.90;;
24261;SDS011;12385;51.412;5.540;2023-12-20T07:47:30;34.85;;;5.65;;
24261;SDS011;12385;51.412;5.540;2023-12-20T07:49:55;32.47;;;5.93;;
24261;SDS011;12385;51.412;5.540;2023-12-20T07:52:22;39.55;;;6.03;;
24261;SDS011;12385;51.412;5.540;2023-12-20T07:54:48;36.17;;;5.95;;
24261;SDS011;12385;51.412;5.540;2023-12-20T07:57:14;34.33;;;5.47;;
24261;SDS011;12385;51.412;5.540;2023-12-20T07:59:39;40.10;;;5.97;;
24261;SDS011;12385;51.412;5.540;2023-12-20T08:02:05;32.88;;;5.75;;
24261;SDS011;12385;51.412;5.540;2023-12-20T08:04:31;30.88;;;5.13;;
24261;SDS011;12385;51.412;5.540;2023-12-20T08:06:57;38.33;;;5.60;;
24261;SDS011;12385;51.412;5.540;2023-12-20T08:09:23;29.63;;;5.60;;
24261;SDS011;12385;51.412;5.540;2023-12-20T08:11:52;41.22;;;6.25;;
24261;SDS011;12385;51.412;5.540;2023-12-20T08:14:19;33.77;;;6.30;;
24261;SDS011;12385;51.412;5.540;2023-12-20T08:16:47;36.60;;;6.57;;
24261;SDS011;12385;51.412;5.540;2023-12-20T08:19:13;29.48;;;5.55;;
24261;SDS011;12385;51.412;5.540;2023-12-20T08:21:39;39.83;;;6.30;;
24261;SDS011;12385;51.412;5.540;2023-12-20T08:24:04;29.77;;;5.65;;
24261;SDS011;12385;51.412;5.540;2023-12-20T08:26:31;40.92;;;6.47;;
24261;SDS011;12385;51.412;5.540;2023-12-20T08:28:59;34.85;;;6.03;;
24261;SDS011;12385;51.412;5.540;2023-12-20T08:31:25;39.10;;;7.28;;
24261;SDS011;12385;51.412;5.540;2023-12-20T08:33:52;36.85;;;5.88;;
24261;SDS011;12385;51.412;5.540;2023-12-20T08:36:19;30.45;;;5.80;;
24261;SDS011;12385;51.412;5.540;2023-12-20T08:38:48;31.70;;;5.72;;
24261;SDS011;12385;51.412;5.540;2023-12-20T08:41:18;27.67;;;6.03;;
24261;SDS011;12385;51.412;5.540;2023-12-20T08:43:48;35.50;;;6.13;;
24261;SDS011;12385;51.412;5.540;2023-12-20T08:46:14;31.98;;;5.70;;
24261;SDS011;12385;51.412;5.540;2023-12-20T08:48:40;40.33;;;8.02;;
24261;SDS011;12385;51.412;5.540;2023-12-20T08:51:05;39.80;;;5.78;;
24261;SDS011;12385;51.412;5.540;2023-12-20T08:53:38;24.27;;;4.97;;
24261;SDS011;12385;51.412;5.540;2023-12-20T08:56:06;41.33;;;5.72;;
24261;SDS011;12385;51.412;5.540;2023-12-20T08:58:32;33.95;;;5.53;;
24261;SDS011;12385;51.412;5.540;2023-12-20T09:00:58;32.15;;;5.65;;
24261;SDS011;12385;51.412;5.540;2023-12-20T09:03:24;26.50;;;4.70;;
24261;SDS011;12385;51.412;5.540;2023-12-20T09:05:53;38.17;;;5.90;;
24261;SDS011;12385;51.412;5.540;2023-12-20T09:08:18;25.08;;;5.72;;
24261;SDS011;12385;51.412;5.540;2023-12-20T09:10:44;29.85;;;5.50;;
24261;SDS011;12385;51.412;5.540;2023-12-20T09:13:09;27.65;;;4.70;;
24261;SDS011;12385;51.412;5.540;2023-12-20T09:15:35;29.50;;;5.30;;
24261;SDS011;12385;51.412;5.540;2023-12-20T09:18:01;31.52;;;5.35;;
24261;SDS011;12385;51.412;5.540;2023-12-20T09:20:27;25.75;;;4.85;;
24261;SDS011;12385;51.412;5.540;2023-12-20T09:22:53;27.00;;;5.03;;
24261;SDS011;12385;51.412;5.540;2023-12-20T09:25:18;33.22;;;5.30;;
24261;SDS011;12385;51.412;5.540;2023-12-20T09:27:44;31.27;;;5.25;;
24261;SDS011;12385;51.412;5.540;2023-12-20T09:30:10;23.83;;;4.45;;
24261;SDS011;12385;51.412;5.540;2023-12-20T09:32:36;27.58;;;4.68;;
24261;SDS011;12385;51.412;5.540;2023-12-20T09:35:02;40.47;;;5.03;;
24261;SDS011;12385;51.412;5.540;2023-12-20T09:37:30;28.88;;;4.85;;
24261;SDS011;12385;51.412;5.540;2023-12-20T09:43:14;31.55;;;4.90;;
24261;SDS011;12385;51.412;5.540;2023-12-20T09:45:41;22.58;;;5.30;;
24261;SDS011;12385;51.412;5.540;2023-12-20T09:48:09;24.20;;;4.80;;
24261;SDS011;12385;51.412;5.540;2023-12-20T09:50:37;34.72;;;5.38;;
24261;SDS011;12385;51.412;5.540;2023-12-20T09:53:03;26.48;;;5.13;;
24261;SDS011;12385;51.412;5.540;2023-12-20T09:55:34;24.70;;;5.45;;
24261;SDS011;12385;51.412;5.540;2023-12-20T09:58:01;25.42;;;5.55;;
24261;SDS011;12385;51.412;5.540;2023-12-20T10:00:27;28.17;;;5.57;;
24261;SDS011;12385;51.412;5.540;2023-12-20T10:02:57;28.17;;;6.20;;
24261;SDS011;12385;51.412;5.540;2023-12-20T10:05:30;33.55;;;6.55;;
24261;SDS011;12385;51.412;5.540;2023-12-20T10:07:57;25.75;;;5.65;;
24261;SDS011;12385;51.412;5.540;2023-12-20T10:10:24;29.40;;;6.00;;
24261;SDS011;12385;51.412;5.540;2023-12-20T10:15:28;21.52;;;4.80;;
24261;SDS011;12385;51.412;5.540;2023-12-20T10:17:54;34.38;;;5.22;;
24261;SDS011;12385;51.412;5.540;2023-12-20T10:20:20;29.58;;;5.60;;
24261;SDS011;12385;51.412;5.540;2023-12-20T10:22:46;24.58;;;5.35;;
24261;SDS011;12385;51.412;5.540;2023-12-20T10:25:12;23.42;;;5.15;;
24261;SDS011;12385;51.412;5.540;2023-12-20T10:27:38;30.08;;;4.43;;
24261;SDS011;12385;51.412;5.540;2023-12-20T10:30:03;26.88;;;5.38;;
24261;SDS011;12385;51.412;5.540;2023-12-20T10:32:30;24.65;;;5.10;;
24261;SDS011;12385;51.412;5.540;2023-12-20T10:34:56;32.53;;;5.15;;
24261;SDS011;12385;51.412;5.540;2023-12-20T10:37:23;23.63;;;4.20;;
24261;SDS011;12385;51.412;5.540;2023-12-20T10:39:53;22.50;;;4.32;;
24261;SDS011;12385;51.412;5.540;2023-12-20T10:42:27;29.95;;;4.88;;
24261;SDS011;12385;51.412;5.540;2023-12-20T10:44:54;32.60;;;5.70;;
24261;SDS011;12385;51.412;5.540;2023-12-20T10:47:20;25.67;;;4.95;;
24261;SDS011;12385;51.412;5.540;2023-12-20T10:49:47;26.58;;;4.97;;
24261;SDS011;12385;51.412;5.540;2023-12-20T10:52:16;29.70;;;4.70;;
24261;SDS011;12385;51.412;5.540;2023-12-20T10:54:42;27.70;;;4.65;;
24261;SDS011;12385;51.412;5.540;2023-12-20T10:57:09;26.75;;;4.78;;
24261;SDS011;12385;51.412;5.540;2023-12-20T10:59:36;26.05;;;4.93;;
24261;SDS011;12385;51.412;5.540;2023-12-20T11:02:04;27.80;;;4.97;;
24261;SDS011;12385;51.412;5.540;2023-12-20T11:04:55;20.83;;;4.85;;
24261;SDS011;12385;51.412;5.540;2023-12-20T11:07:38;25.95;;;5.07;;
24261;SDS011;12385;51.412;5.540;2023-12-20T11:10:18;31.83;;;5.43;;
24261;SDS011;12385;51.412;5.540;2023-12-20T11:13:06;32.00;;;5.40;;
24261;SDS011;12385;51.412;5.540;2023-12-20T11:15:48;31.67;;;5.38;;
24261;SDS011;12385;51.412;5.540;2023-12-20T11:18:14;28.52;;;5.55;;
24261;SDS011;12385;51.412;5.540;2023-12-20T11:20:41;25.77;;;5.03;;
24261;SDS011;12385;51.412;5.540;2023-12-20T11:23:07;23.17;;;4.93;;
24261;SDS011;12385;51.412;5.540;2023-12-20T11:28:23;30.48;;;5.20;;
24261;SDS011;12385;51.412;5.540;2023-12-20T11:30:54;33.63;;;5.55;;
24261;SDS011;12385;51.412;5.540;2023-12-20T11:33:39;27.70;;;5.80;;
24261;SDS011;12385;51.412;5.540;2023-12-20T11:36:14;32.25;;;6.22;;
24261;SDS011;12385;51.412;5.540;2023-12-20T11:38:56;30.30;;;5.50;;
24261;SDS011;12385;51.412;5.540;2023-12-20T11:41:25;30.15;;;6.68;;
24261;SDS011;12385;51.412;5.540;2023-12-20T11:43:55;28.50;;;6.57;;
24261;SDS011;12385;51.412;5.540;2023-12-20T11:46:24;31.63;;;6.03;;
24261;SDS011;12385;51.412;5.540;2023-12-20T11:48:51;42.25;;;7.82;;
24261;SDS011;12385;51.412;5.540;2023-12-20T11:51:17;27.25;;;5.88;;
24261;SDS011;12385;51.412;5.540;2023-12-20T11:53:43;38.13;;;7.28;;
24261;SDS011;12385;51.412;5.540;2023-12-20T11:56:09;28.13;;;6.50;;
24261;SDS011;12385;51.412;5.540;2023-12-20T11:58:35;36.70;;;6.85;;
24261;SDS011;12385;51.412;5.540;2023-12-20T12:01:01;32.20;;;6.60;;
24261;SDS011;12385;51.412;5.540;2023-12-20T12:03:27;35.63;;;6.60;;
24261;SDS011;12385;51.412;5.540;2023-12-20T12:05:53;26.70;;;5.80;;
24261;SDS011;12385;51.412;5.540;2023-12-20T12:08:19;31.98;;;7.00;;
24261;SDS011;12385;51.412;5.540;2023-12-20T12:10:46;36.13;;;6.68;;
24261;SDS011;12385;51.412;5.540;2023-12-20T12:13:13;34.95;;;7.30;;
24261;SDS011;12385;51.412;5.540;2023-12-20T12:15:41;33.25;;;6.65;;
24261;SDS011;12385;51.412;5.540;2023-12-20T12:18:07;27.17;;;6.65;;
24261;SDS011;12385;51.412;5.540;2023-12-20T12:20:33;32.33;;;6.90;;
24261;SDS011;12385;51.412;5.540;2023-12-20T12:25:26;32.33;;;7.60;;
24261;SDS011;12385;51.412;5.540;2023-12-20T12:27:53;29.30;;;7.30;;
24261;SDS011;12385;51.412;5.540;2023-12-20T12:30:23;35.45;;;7.57;;
24261;SDS011;12385;51.412;5.540;2023-12-20T12:32:49;39.55;;;7.95;;
24261;SDS011;12385;51.412;5.540;2023-12-20T12:37:47;38.13;;;7.70;;
24261;SDS011;12385;51.412;5.540;2023-12-20T12:40:16;28.88;;;7.13;;
24261;SDS011;12385;51.412;5.540;2023-12-20T12:42:43;30.02;;;6.85;;
24261;SDS011;12385;51.412;5.540;2023-12-20T12:45:10;26.67;;;7.22;;
24261;SDS011;12385;51.412;5.540;2023-12-20T12:47:36;36.17;;;7.95;;
24261;SDS011;12385;51.412;5.540;2023-12-20T12:50:03;34.40;;;7.72;;
24261;SDS011;12385;51.412;5.540;2023-12-20T12:52:30;32.08;;;8.20;;
24261;SDS011;12385;51.412;5.540;2023-12-20T12:54:55;33.65;;;8.27;;
24261;SDS011;12385;51.412;5.540;2023-12-20T12:57:21;33.97;;;8.13;;
24261;SDS011;12385;51.412;5.540;2023-12-20T12:59:49;33.63;;;8.88;;
24261;SDS011;12385;51.412;5.540;2023-12-20T13:02:20;38.08;;;8.10;;
24261;SDS011;12385;51.412;5.540;2023-12-20T13:04:47;34.08;;;8.10;;
24261;SDS011;12385;51.412;5.540;2023-12-20T13:07:13;29.30;;;8.30;;
24261;SDS011;12385;51.412;5.540;2023-12-20T13:09:39;35.75;;;9.07;;
24261;SDS011;12385;51.412;5.540;2023-12-20T13:12:05;24.98;;;8.27;;
24261;SDS011;12385;51.412;5.540;2023-12-20T13:14:32;33.05;;;9.55;;
24261;SDS011;12385;51.412;5.540;2023-12-20T13:16:59;32.40;;;8.88;;
24261;SDS011;12385;51.412;5.540;2023-12-20T13:19:26;29.77;;;9.05;;
24261;SDS011;12385;51.412;5.540;2023-12-20T13:21:52;32.92;;;8.73;;
24261;SDS011;12385;51.412;5.540;2023-12-20T13:24:18;29.05;;;8.85;;
24261;SDS011;12385;51.412;5.540;2023-12-20T13:26:46;27.20;;;7.78;;
24261;SDS011;12385;51.412;5.540;2023-12-20T13:29:12;28.92;;;8.13;;
24261;SDS011;12385;51.412;5.540;2023-12-20T13:31:37;32.22;;;8.38;;
24261;SDS011;12385;51.412;5.540;2023-12-20T13:34:04;31.73;;;7.75;;
24261;SDS011;12385;51.412;5.540;2023-12-20T13:36:31;34.35;;;9.35;;
24261;SDS011;12385;51.412;5.540;2023-12-20T13:38:56;29.35;;;7.65;;
24261;SDS011;12385;51.412;5.540;2023-12-20T13:41:29;33.70;;;7.80;;
24261;SDS011;12385;51.412;5.540;2023-12-20T13:44:01;32.30;;;8.27;;
24261;SDS011;12385;51.412;5.540;2023-12-20T13:46:28;27.75;;;8.13;;
24261;SDS011;12385;51.412;5.540;2023-12-20T13:48:54;32.47;;;8.00;;
24261;SDS011;12385;51.412;5.540;2023-12-20T13:51:21;29.25;;;7.28;;
24261;SDS011;12385;51.412;5.540;2023-12-20T13:53:48;27.63;;;7.72;;
24261;SDS011;12385;51.412;5.540;2023-12-20T13:56:17;27.27;;;7.45;;
24261;SDS011;12385;51.412;5.540;2023-12-20T13:58:46;24.13;;;7.00;;
24261;SDS011;12385;51.412;5.540;2023-12-20T14:01:12;34.70;;;8.18;;
24261;SDS011;12385;51.412;5.540;2023-12-20T14:03:37;37.00;;;10.55;;
24261;SDS011;12385;51.412;5.540;2023-12-20T14:06:03;28.92;;;7.50;;
24261;SDS011;12385;51.412;5.540;2023-12-20T14:08:29;26.90;;;7.90;;
24261;SDS011;12385;51.412;5.540;2023-12-20T14:10:54;28.50;;;6.97;;
24261;SDS011;12385;51.412;5.540;2023-12-20T14:13:21;35.47;;;6.93;;
24261;SDS011;12385;51.412;5.540;2023-12-20T14:15:47;26.98;;;6.88;;
24261;SDS011;12385;51.412;5.540;2023-12-20T14:18:14;26.73;;;6.78;;
24261;SDS011;12385;51.412;5.540;2023-12-20T14:20:40;23.65;;;6.53;;
24261;SDS011;12385;51.412;5.540;2023-12-20T14:23:07;36.88;;;7.32;;
24261;SDS011;12385;51.412;5.540;2023-12-20T14:25:34;31.77;;;6.82;;
24261;SDS011;12385;51.412;5.540;2023-12-20T14:28:02;28.58;;;6.63;;
24261;SDS011;12385;51.412;5.540;2023-12-20T14:30:28;25.33;;;6.43;;
24261;SDS011;12385;51.412;5.540;2023-12-20T14:32:54;30.27;;;6.55;;
24261;SDS011;12385;51.412;5.540;2023-12-20T14:35:21;29.25;;;7.10;;
24261;SDS011;12385;51.412;5.540;2023-12-20T14:37:47;29.40;;;6.45;;
24261;SDS011;12385;51.412;5.540;2023-12-20T14:40:16;23.10;;;6.50;;
24261;SDS011;12385;51.412;5.540;2023-12-20T14:42:42;25.30;;;5.85;;
24261;SDS011;12385;51.412;5.540;2023-12-20T14:45:11;28.38;;;6.53;;
24261;SDS011;12385;51.412;5.540;2023-12-20T14:47:39;31.00;;;6.35;;